sensor_id;sensor_type;location;lat;lon;timestamp;pressure;altitude;pressure_sealevel;temperature;humidity
13593;BME280;6867;50.998;4.250;2023-02-25T00:01:11;100654.72;;;6.22;75.90
13593;BME280;6867;50.998;4.250;2023-02-25T00:03:39;100644.13;;;5.99;75.65
13593;BME280;6867;50.998;4.250;2023-02-25T00:06:08;100644.75;;;6.01;75.60
13593;BME280;6867;50.998;4.250;2023-02-25T00:08:37;100650.16;;;5.70;75.91
13593;BME280;6867;50.998;4.250;2023-02-25T00:11:06;100652.56;;;5.80;75.01
13593;BME280;6867;50.998;4.250;2023-02-25T00:13:34;100640.66;;;5.67;75.38
13593;BME280;6867;50.998;4.250;2023-02-25T00:16:02;100643.25;;;5.61;75.75
13593;BME280;6867;50.998;4.250;2023-02-25T00:18:29;100643.09;;;5.54;75.51
13593;BME280;6867;50.998;4.250;2023-02-25T00:20:56;100666.31;;;5.68;75.73
13593;BME280;6867;50.998;4.250;2023-02-25T00:23:23;100660.16;;;5.68;75.99
13593;BME280;6867;50.998;4.250;2023-02-25T00:25:57;100664.53;;;5.84;75.94
13593;BME280;6867;50.998;4.250;2023-02-25T00:28:25;100652.09;;;5.76;75.46
13593;BME280;6867;50.998;4.250;2023-02-25T00:30:52;100647.66;;;5.68;75.48
13593;BME280;6867;50.998;4.250;2023-02-25T00:33:19;100657.34;;;5.69;75.71
13593;BME280;6867;50.998;4.250;2023-02-25T00:35:46;100678.75;;;5.76;75.92
13593;BME280;6867;50.998;4.250;2023-02-25T00:38:13;100671.75;;;5.75;75.59
13593;BME280;6867;50.998;4.250;2023-02-25T00:40:40;100669.09;;;5.75;75.86
13593;BME280;6867;50.998;4.250;2023-02-25T00:43:07;100668.56;;;5.80;76.04
13593;BME280;6867;50.998;4.250;2023-02-25T00:45:37;100667.66;;;5.87;75.58
13593;BME280;6867;50.998;4.250;2023-02-25T00:48:04;100680.53;;;5.84;76.12
13593;BME280;6867;50.998;4.250;2023-02-25T00:50:31;100676.28;;;5.74;75.89
13593;BME280;6867;50.998;4.250;2023-02-25T00:52:58;100663.88;;;5.59;75.50
13593;BME280;6867;50.998;4.250;2023-02-25T00:55:25;100661.22;;;5.59;75.14
13593;BME280;6867;50.998;4.250;2023-02-25T00:57:58;100670.94;;;5.74;75.45
13593;BME280;6867;50.998;4.250;2023-02-25T01:00:25;100674.69;;;5.65;75.53
13593;BME280;6867;50.998;4.250;2023-02-25T01:02:54;100686.41;;;5.79;75.70
13593;BME280;6867;50.998;4.250;2023-02-25T01:05:22;100689.25;;;6.01;76.04
13593;BME280;6867;50.998;4.250;2023-02-25T01:07:49;100678.88;;;6.06;75.41
13593;BME280;6867;50.998;4.250;2023-02-25T01:10:15;100661.28;;;5.96;75.18
13593;BME280;6867;50.998;4.250;2023-02-25T01:12:42;100655.59;;;5.77;74.66
13593;BME280;6867;50.998;4.250;2023-02-25T01:15:10;100648.03;;;5.65;74.64
13593;BME280;6867;50.998;4.250;2023-02-25T01:17:38;100663.88;;;5.59;75.03
13593;BME280;6867;50.998;4.250;2023-02-25T01:20:10;100674.31;;;5.68;75.09
13593;BME280;6867;50.998;4.250;2023-02-25T01:22:38;100686.59;;;5.78;74.96
13593;BME280;6867;50.998;4.250;2023-02-25T01:25:09;100686.94;;;5.74;75.50
13593;BME280;6867;50.998;4.250;2023-02-25T01:27:37;100678.81;;;5.68;75.16
13593;BME280;6867;50.998;4.250;2023-02-25T01:30:05;100682.50;;;5.67;75.42
13593;BME280;6867;50.998;4.250;2023-02-25T01:32:31;100669.16;;;5.67;74.97
13593;BME280;6867;50.998;4.250;2023-02-25T01:34:58;100659.28;;;5.53;74.91
13593;BME280;6867;50.998;4.250;2023-02-25T01:37:27;100649.22;;;5.40;74.92
13593;BME280;6867;50.998;4.250;2023-02-25T01:39:53;100646.81;;;5.22;74.41
13593;BME280;6867;50.998;4.250;2023-02-25T01:42:20;100642.88;;;5.10;74.04
13593;BME280;6867;50.998;4.250;2023-02-25T01:47:54;100638.50;;;4.94;74.00
13593;BME280;6867;50.998;4.250;2023-02-25T01:50:25;100626.72;;;4.80;74.79
13593;BME280;6867;50.998;4.250;2023-02-25T01:52:56;100631.94;;;4.73;74.79
13593;BME280;6867;50.998;4.250;2023-02-25T01:55:25;100626.47;;;4.67;74.38
13593;BME280;6867;50.998;4.250;2023-02-25T01:57:52;100641.59;;;4.66;74.37
13593;BME280;6867;50.998;4.250;2023-02-25T02:00:19;100652.03;;;4.76;74.50
13593;BME280;6867;50.998;4.250;2023-02-25T02:02:47;100658.84;;;4.79;75.17
13593;BME280;6867;50.998;4.250;2023-02-25T02:05:14;100669.13;;;4.90;75.06
13593;BME280;6867;50.998;4.250;2023-02-25T02:07:41;100689.34;;;5.07;75.87
13593;BME280;6867;50.998;4.250;2023-02-25T02:10:10;100708.34;;;5.35;75.66
13593;BME280;6867;50.998;4.250;2023-02-25T02:12:38;100719.91;;;5.50;76.12
13593;BME280;6867;50.998;4.250;2023-02-25T02:15:10;100728.38;;;5.54;76.07
13593;BME280;6867;50.998;4.250;2023-02-25T02:17:41;100715.81;;;5.63;76.34
13593;BME280;6867;50.998;4.250;2023-02-25T02:20:14;100712.63;;;5.67;76.29
13593;BME280;6867;50.998;4.250;2023-02-25T02:22:55;100712.56;;;5.75;75.97
13593;BME280;6867;50.998;4.250;2023-02-25T02:25:40;100708.97;;;5.91;75.99
13593;BME280;6867;50.998;4.250;2023-02-25T02:28:48;100703.34;;;5.86;75.45
13593;BME280;6867;50.998;4.250;2023-02-25T02:31:34;100700.19;;;6.06;75.12
13593;BME280;6867;50.998;4.250;2023-02-25T02:34:11;100696.41;;;6.23;75.39
13593;BME280;6867;50.998;4.250;2023-02-25T02:36:50;100678.72;;;6.22;75.01
13593;BME280;6867;50.998;4.250;2023-02-25T02:39:24;100686.09;;;6.20;74.90
13593;BME280;6867;50.998;4.250;2023-02-25T02:41:58;100680.91;;;6.04;74.93
13593;BME280;6867;50.998;4.250;2023-02-25T02:44:29;100694.72;;;6.22;75.14
13593;BME280;6867;50.998;4.250;2023-02-25T02:47:02;100686.56;;;6.23;74.97
13593;BME280;6867;50.998;4.250;2023-02-25T02:49:34;100697.78;;;6.19;75.17
13593;BME280;6867;50.998;4.250;2023-02-25T02:52:06;100703.41;;;6.39;74.54
13593;BME280;6867;50.998;4.250;2023-02-25T02:54:40;100703.16;;;6.48;74.52
13593;BME280;6867;50.998;4.250;2023-02-25T02:57:09;100694.22;;;6.41;74.48
13593;BME280;6867;50.998;4.250;2023-02-25T02:59:42;100698.19;;;6.45;74.03
13593;BME280;6867;50.998;4.250;2023-02-25T03:02:16;100694.50;;;6.46;74.30
13593;BME280;6867;50.998;4.250;2023-02-25T03:04:46;100678.78;;;6.14;74.03
13593;BME280;6867;50.998;4.250;2023-02-25T03:07:15;100701.41;;;6.41;74.35
13593;BME280;6867;50.998;4.250;2023-02-25T03:09:45;100689.63;;;6.50;74.27
13593;BME280;6867;50.998;4.250;2023-02-25T03:12:13;100687.78;;;6.51;74.04
13593;BME280;6867;50.998;4.250;2023-02-25T03:14:40;100700.72;;;6.39;74.32
13593;BME280;6867;50.998;4.250;2023-02-25T03:17:09;100700.03;;;6.45;74.43
13593;BME280;6867;50.998;4.250;2023-02-25T03:19:40;100692.72;;;6.39;74.28
13593;BME280;6867;50.998;4.250;2023-02-25T03:22:09;100694.84;;;6.29;74.30
13593;BME280;6867;50.998;4.250;2023-02-25T03:24:42;100691.63;;;6.33;74.39
13593;BME280;6867;50.998;4.250;2023-02-25T03:27:22;100701.94;;;6.36;74.28
13593;BME280;6867;50.998;4.250;2023-02-25T03:29:50;100696.09;;;6.18;74.43
13593;BME280;6867;50.998;4.250;2023-02-25T03:32:18;100701.06;;;6.21;74.31
13593;BME280;6867;50.998;4.250;2023-02-25T03:34:48;100699.34;;;6.28;74.35
13593;BME280;6867;50.998;4.250;2023-02-25T03:37:18;100709.66;;;6.31;74.31
13593;BME280;6867;50.998;4.250;2023-02-25T03:39:50;100699.22;;;6.21;74.34
13593;BME280;6867;50.998;4.250;2023-02-25T03:42:22;100705.50;;;6.29;74.73
13593;BME280;6867;50.998;4.250;2023-02-25T03:44:55;100696.59;;;6.36;74.58
13593;BME280;6867;50.998;4.250;2023-02-25T03:47:24;100695.88;;;6.42;74.14
13593;BME280;6867;50.998;4.250;2023-02-25T03:49:57;100682.88;;;6.39;74.33
13593;BME280;6867;50.998;4.250;2023-02-25T03:52:26;100681.50;;;6.43;73.75
13593;BME280;6867;50.998;4.250;2023-02-25T03:54:54;100678.66;;;6.45;73.92
13593;BME280;6867;50.998;4.250;2023-02-25T03:57:24;100668.78;;;6.31;73.44
13593;BME280;6867;50.998;4.250;2023-02-25T03:59:52;100677.25;;;6.34;73.38
13593;BME280;6867;50.998;4.250;2023-02-25T04:02:24;100668.34;;;6.42;73.33
13593;BME280;6867;50.998;4.250;2023-02-25T04:04:55;100670.38;;;6.55;73.14
13593;BME280;6867;50.998;4.250;2023-02-25T04:07:22;100657.03;;;6.55;72.75
13593;BME280;6867;50.998;4.250;2023-02-25T04:09:48;100654.84;;;6.58;72.49
13593;BME280;6867;50.998;4.250;2023-02-25T04:12:15;100657.69;;;6.57;72.46
13593;BME280;6867;50.998;4.250;2023-02-25T04:14:42;100664.03;;;6.56;72.38
13593;BME280;6867;50.998;4.250;2023-02-25T04:17:08;100657.97;;;6.62;72.05
13593;BME280;6867;50.998;4.250;2023-02-25T04:19:36;100660.81;;;6.60;72.09
13593;BME280;6867;50.998;4.250;2023-02-25T04:22:04;100671.22;;;6.55;72.29
13593;BME280;6867;50.998;4.250;2023-02-25T04:24:32;100673.81;;;6.48;72.24
13593;BME280;6867;50.998;4.250;2023-02-25T04:26:59;100671.97;;;6.49;72.46
13593;BME280;6867;50.998;4.250;2023-02-25T04:29:26;100680.78;;;6.49;72.11
13593;BME280;6867;50.998;4.250;2023-02-25T04:31:53;100681.41;;;6.52;72.75
13593;BME280;6867;50.998;4.250;2023-02-25T04:34:20;100694.22;;;6.41;72.40
13593;BME280;6867;50.998;4.250;2023-02-25T04:36:47;100683.72;;;6.55;71.87
13593;BME280;6867;50.998;4.250;2023-02-25T04:39:16;100687.69;;;6.59;71.95
13593;BME280;6867;50.998;4.250;2023-02-25T04:41:44;100689.19;;;6.61;72.08
13593;BME280;6867;50.998;4.250;2023-02-25T04:44:10;100693.38;;;6.56;72.16
13593;BME280;6867;50.998;4.250;2023-02-25T04:46:39;100690.28;;;6.67;71.61
13593;BME280;6867;50.998;4.250;2023-02-25T04:49:07;100675.56;;;6.86;70.99
13593;BME280;6867;50.998;4.250;2023-02-25T04:51:35;100656.66;;;6.87;70.52
13593;BME280;6867;50.998;4.250;2023-02-25T04:54:03;100659.22;;;6.81;70.57
13593;BME280;6867;50.998;4.250;2023-02-25T04:56:31;100653.56;;;6.69;70.57
13593;BME280;6867;50.998;4.250;2023-02-25T04:58:57;100635.97;;;6.74;70.17
13593;BME280;6867;50.998;4.250;2023-02-25T05:01:24;100622.16;;;6.71;69.70
13593;BME280;6867;50.998;4.250;2023-02-25T05:03:51;100619.50;;;6.71;69.69
13593;BME280;6867;50.998;4.250;2023-02-25T05:06:21;100621.97;;;6.72;69.12
13593;BME280;6867;50.998;4.250;2023-02-25T05:08:48;100616.44;;;6.59;69.50
13593;BME280;6867;50.998;4.250;2023-02-25T05:11:16;100628.72;;;6.54;69.53
13593;BME280;6867;50.998;4.250;2023-02-25T05:13:44;100645.66;;;6.61;69.76
13593;BME280;6867;50.998;4.250;2023-02-25T05:16:12;100643.34;;;6.58;69.99
13593;BME280;6867;50.998;4.250;2023-02-25T05:18:42;100640.66;;;6.58;70.42
13593;BME280;6867;50.998;4.250;2023-02-25T05:21:11;100657.13;;;6.46;69.99
13593;BME280;6867;50.998;4.250;2023-02-25T05:23:38;100657.38;;;6.22;70.36
13593;BME280;6867;50.998;4.250;2023-02-25T05:26:05;100667.63;;;6.33;70.76
13593;BME280;6867;50.998;4.250;2023-02-25T05:28:33;100652.44;;;6.19;70.24
13593;BME280;6867;50.998;4.250;2023-02-25T05:31:04;100633.22;;;6.38;69.57
13593;BME280;6867;50.998;4.250;2023-02-25T05:33:31;100609.00;;;6.55;69.26
13593;BME280;6867;50.998;4.250;2023-02-25T05:35:58;100611.41;;;6.49;68.87
13593;BME280;6867;50.998;4.250;2023-02-25T05:38:24;100607.81;;;6.57;69.07
13593;BME280;6867;50.998;4.250;2023-02-25T05:40:52;100605.31;;;6.56;69.16
13593;BME280;6867;50.998;4.250;2023-02-25T05:43:19;100619.06;;;6.53;68.88
13593;BME280;6867;50.998;4.250;2023-02-25T05:45:51;100628.44;;;6.48;69.11
13593;BME280;6867;50.998;4.250;2023-02-25T05:48:19;100626.22;;;6.52;69.14
13593;BME280;6867;50.998;4.250;2023-02-25T05:50:46;100632.09;;;6.47;68.90
13593;BME280;6867;50.998;4.250;2023-02-25T05:53:14;100642.78;;;6.47;69.24
13593;BME280;6867;50.998;4.250;2023-02-25T05:55:41;100643.06;;;6.38;69.18
13593;BME280;6867;50.998;4.250;2023-02-25T05:58:08;100648.94;;;6.33;69.39
13593;BME280;6867;50.998;4.250;2023-02-25T06:00:36;100655.28;;;6.32;69.17
13593;BME280;6867;50.998;4.250;2023-02-25T06:03:03;100652.53;;;6.40;69.76
13593;BME280;6867;50.998;4.250;2023-02-25T06:05:31;100640.75;;;6.64;69.30
13593;BME280;6867;50.998;4.250;2023-02-25T06:07:58;100628.59;;;6.77;68.62
13593;BME280;6867;50.998;4.250;2023-02-25T06:10:26;100624.25;;;6.76;68.52
13593;BME280;6867;50.998;4.250;2023-02-25T06:13:03;100641.13;;;6.61;68.86
13593;BME280;6867;50.998;4.250;2023-02-25T06:15:30;100647.75;;;6.51;68.71
13593;BME280;6867;50.998;4.250;2023-02-25T06:17:56;100655.28;;;6.47;69.22
13593;BME280;6867;50.998;4.250;2023-02-25T06:20:23;100670.94;;;6.50;69.39
13593;BME280;6867;50.998;4.250;2023-02-25T06:22:53;100705.25;;;6.38;70.10
13593;BME280;6867;50.998;4.250;2023-02-25T06:25:20;100730.22;;;6.22;70.88
13593;BME280;6867;50.998;4.250;2023-02-25T06:27:47;100750.09;;;6.20;71.35
13593;BME280;6867;50.998;4.250;2023-02-25T06:30:13;100760.56;;;6.07;72.13
13593;BME280;6867;50.998;4.250;2023-02-25T06:32:40;100788.28;;;5.89;73.23
13593;BME280;6867;50.998;4.250;2023-02-25T06:35:08;100802.66;;;5.80;73.99
13593;BME280;6867;50.998;4.250;2023-02-25T06:37:34;100807.66;;;5.83;74.66
13593;BME280;6867;50.998;4.250;2023-02-25T06:40:03;100814.88;;;5.74;74.92
13593;BME280;6867;50.998;4.250;2023-02-25T06:42:31;100805.09;;;5.67;75.41
13593;BME280;6867;50.998;4.250;2023-02-25T06:44:58;100805.41;;;5.64;74.84
13593;BME280;6867;50.998;4.250;2023-02-25T06:47:25;100800.28;;;5.62;74.93
13593;BME280;6867;50.998;4.250;2023-02-25T06:49:52;100797.75;;;5.69;74.46
13593;BME280;6867;50.998;4.250;2023-02-25T06:52:18;100804.22;;;5.74;75.09
13593;BME280;6867;50.998;4.250;2023-02-25T06:54:45;100818.66;;;5.80;75.15
13593;BME280;6867;50.998;4.250;2023-02-25T06:57:13;100825.72;;;6.04;75.27
13593;BME280;6867;50.998;4.250;2023-02-25T06:59:40;100828.69;;;6.09;75.27
13593;BME280;6867;50.998;4.250;2023-02-25T07:02:09;100837.16;;;6.13;75.26
13593;BME280;6867;50.998;4.250;2023-02-25T07:04:37;100845.59;;;6.24;75.34
13593;BME280;6867;50.998;4.250;2023-02-25T07:07:03;100862.03;;;6.36;75.62
13593;BME280;6867;50.998;4.250;2023-02-25T07:09:30;100871.16;;;6.19;76.25
13593;BME280;6867;50.998;4.250;2023-02-25T07:11:57;100873.16;;;6.17;77.07
13593;BME280;6867;50.998;4.250;2023-02-25T07:14:26;100852.94;;;6.45;76.40
13593;BME280;6867;50.998;4.250;2023-02-25T07:16:52;100842.69;;;6.57;76.18
13593;BME280;6867;50.998;4.250;2023-02-25T07:19:19;100829.16;;;6.59;75.70
13593;BME280;6867;50.998;4.250;2023-02-25T07:21:46;100842.41;;;6.67;76.07
13593;BME280;6867;50.998;4.250;2023-02-25T07:24:14;100842.78;;;6.64;76.21
13593;BME280;6867;50.998;4.250;2023-02-25T07:26:41;100840.69;;;6.74;75.95
13593;BME280;6867;50.998;4.250;2023-02-25T07:29:07;100854.06;;;6.51;76.50
13593;BME280;6867;50.998;4.250;2023-02-25T07:31:35;100866.16;;;6.62;77.26
13593;BME280;6867;50.998;4.250;2023-02-25T07:34:02;100862.53;;;6.78;77.12
13593;BME280;6867;50.998;4.250;2023-02-25T07:36:29;100864.66;;;6.97;76.85
13593;BME280;6867;50.998;4.250;2023-02-25T07:38:57;100864.94;;;6.87;76.45
13593;BME280;6867;50.998;4.250;2023-02-25T07:41:24;100863.84;;;6.59;76.81
13593;BME280;6867;50.998;4.250;2023-02-25T07:43:51;100868.34;;;6.35;77.18
13593;BME280;6867;50.998;4.250;2023-02-25T07:46:18;100869.09;;;6.52;77.09
13593;BME280;6867;50.998;4.250;2023-02-25T07:48:46;100876.63;;;6.48;77.72
13593;BME280;6867;50.998;4.250;2023-02-25T07:51:14;100874.00;;;6.40;77.43
13593;BME280;6867;50.998;4.250;2023-02-25T07:53:43;100882.94;;;6.47;77.57
13593;BME280;6867;50.998;4.250;2023-02-25T07:56:11;100882.78;;;6.49;77.51
13593;BME280;6867;50.998;4.250;2023-02-25T07:58:38;100876.97;;;6.45;77.80
13593;BME280;6867;50.998;4.250;2023-02-25T08:01:06;100879.31;;;6.86;77.19
13593;BME280;6867;50.998;4.250;2023-02-25T08:03:33;100869.09;;;6.90;76.54
13593;BME280;6867;50.998;4.250;2023-02-25T08:06:01;100884.88;;;7.44;76.49
13593;BME280;6867;50.998;4.250;2023-02-25T08:08:32;100858.25;;;7.65;75.18
13593;BME280;6867;50.998;4.250;2023-02-25T08:11:03;100828.00;;;7.65;74.36
13593;BME280;6867;50.998;4.250;2023-02-25T08:13:30;100827.25;;;7.56;74.00
13593;BME280;6867;50.998;4.250;2023-02-25T08:15:56;100784.06;;;7.23;72.48
13593;BME280;6867;50.998;4.250;2023-02-25T08:18:23;100794.19;;;7.57;72.43
13593;BME280;6867;50.998;4.250;2023-02-25T08:20:49;100812.28;;;7.40;72.93
13593;BME280;6867;50.998;4.250;2023-02-25T08:23:18;100813.38;;;7.31;72.67
13593;BME280;6867;50.998;4.250;2023-02-25T08:25:45;100819.66;;;7.53;72.87
13593;BME280;6867;50.998;4.250;2023-02-25T08:28:11;100803.97;;;7.35;72.17
13593;BME280;6867;50.998;4.250;2023-02-25T08:30:38;100830.78;;;7.27;72.03
13593;BME280;6867;50.998;4.250;2023-02-25T08:33:05;100807.78;;;7.11;71.64
13593;BME280;6867;50.998;4.250;2023-02-25T08:35:31;100830.88;;;7.63;71.91
13593;BME280;6867;50.998;4.250;2023-02-25T08:38:01;100794.41;;;7.41;71.09
13593;BME280;6867;50.998;4.250;2023-02-25T08:40:29;100793.78;;;7.24;71.14
13593;BME280;6867;50.998;4.250;2023-02-25T08:42:56;100760.91;;;7.60;69.90
13593;BME280;6867;50.998;4.250;2023-02-25T08:45:22;100781.34;;;8.04;69.84
13593;BME280;6867;50.998;4.250;2023-02-25T08:47:49;100777.59;;;8.69;68.25
13593;BME280;6867;50.998;4.250;2023-02-25T08:50:16;100747.41;;;8.54;68.14
13593;BME280;6867;50.998;4.250;2023-02-25T08:52:43;100754.50;;;8.68;67.41
13593;BME280;6867;50.998;4.250;2023-02-25T08:55:10;100730.84;;;8.22;67.03
13593;BME280;6867;50.998;4.250;2023-02-25T08:57:40;100759.66;;;7.41;68.15
13593;BME280;6867;50.998;4.250;2023-02-25T09:00:08;100809.25;;;6.99;69.87
13593;BME280;6867;50.998;4.250;2023-02-25T09:02:37;100835.84;;;6.78;70.82
13593;BME280;6867;50.998;4.250;2023-02-25T09:05:04;100865.88;;;6.94;71.65
13593;BME280;6867;50.998;4.250;2023-02-25T09:07:31;100867.28;;;7.20;72.46
13593;BME280;6867;50.998;4.250;2023-02-25T09:09:58;100876.59;;;7.24;72.40
13593;BME280;6867;50.998;4.250;2023-02-25T09:12:24;100880.84;;;7.33;72.77
13593;BME280;6867;50.998;4.250;2023-02-25T09:14:52;100888.00;;;7.18;73.16
13593;BME280;6867;50.998;4.250;2023-02-25T09:17:19;100867.19;;;7.13;72.99
13593;BME280;6867;50.998;4.250;2023-02-25T09:19:46;100873.91;;;7.09;73.36
13593;BME280;6867;50.998;4.250;2023-02-25T09:22:13;100879.97;;;7.03;73.36
13593;BME280;6867;50.998;4.250;2023-02-25T09:24:40;100883.69;;;7.17;73.19
13593;BME280;6867;50.998;4.250;2023-02-25T09:27:06;100857.34;;;7.29;72.91
13593;BME280;6867;50.998;4.250;2023-02-25T09:29:34;100865.72;;;7.55;72.42
13593;BME280;6867;50.998;4.250;2023-02-25T09:32:02;100877.97;;;7.79;72.96
13593;BME280;6867;50.998;4.250;2023-02-25T09:34:29;100841.84;;;7.54;71.91
13593;BME280;6867;50.998;4.250;2023-02-25T09:36:58;100846.13;;;7.84;71.41
13593;BME280;6867;50.998;4.250;2023-02-25T09:39:25;100826.84;;;7.89;70.64
13593;BME280;6867;50.998;4.250;2023-02-25T09:41:53;100834.88;;;8.10;70.56
13593;BME280;6867;50.998;4.250;2023-02-25T09:44:25;100801.13;;;7.88;70.28
13593;BME280;6867;50.998;4.250;2023-02-25T09:46:55;100805.31;;;7.97;70.20
13593;BME280;6867;50.998;4.250;2023-02-25T09:49:27;100791.78;;;7.98;69.55
13593;BME280;6867;50.998;4.250;2023-02-25T09:52:00;100822.91;;;8.28;69.65
13593;BME280;6867;50.998;4.250;2023-02-25T09:54:31;100808.13;;;8.10;69.76
13593;BME280;6867;50.998;4.250;2023-02-25T09:57:02;100851.88;;;8.60;70.24
13593;BME280;6867;50.998;4.250;2023-02-25T09:59:30;100827.88;;;8.45;69.07
13593;BME280;6867;50.998;4.250;2023-02-25T10:01:59;100785.47;;;8.49;68.71
13593;BME280;6867;50.998;4.250;2023-02-25T10:04:36;100825.03;;;9.03;68.31
13593;BME280;6867;50.998;4.250;2023-02-25T10:07:10;100793.41;;;9.27;67.43
13593;BME280;6867;50.998;4.250;2023-02-25T10:09:47;100763.84;;;9.61;66.23
13593;BME280;6867;50.998;4.250;2023-02-25T10:12:23;100719.28;;;9.54;65.01
13593;BME280;6867;50.998;4.250;2023-02-25T10:15:03;100694.13;;;9.68;63.98
13593;BME280;6867;50.998;4.250;2023-02-25T10:17:45;100741.81;;;9.86;64.39
13593;BME280;6867;50.998;4.250;2023-02-25T10:20:46;100720.41;;;10.19;62.91
13593;BME280;6867;50.998;4.250;2023-02-25T10:23:23;100647.06;;;9.52;61.73
13593;BME280;6867;50.998;4.250;2023-02-25T10:25:55;100659.03;;;9.56;61.30
13593;BME280;6867;50.998;4.250;2023-02-25T10:28:24;100691.47;;;9.81;61.06
13593;BME280;6867;50.998;4.250;2023-02-25T10:30:55;100659.09;;;8.60;62.02
13593;BME280;6867;50.998;4.250;2023-02-25T10:33:25;100818.41;;;7.56;66.08
13593;BME280;6867;50.998;4.250;2023-02-25T10:35:59;100883.50;;;7.48;69.12
13593;BME280;6867;50.998;4.250;2023-02-25T10:38:28;100891.44;;;7.71;69.51
13593;BME280;6867;50.998;4.250;2023-02-25T10:40:56;100887.66;;;7.65;69.95
13593;BME280;6867;50.998;4.250;2023-02-25T10:43:25;100895.13;;;7.40;70.00
13593;BME280;6867;50.998;4.250;2023-02-25T10:45:56;100897.06;;;7.32;70.54
13593;BME280;6867;50.998;4.250;2023-02-25T10:48:26;100884.59;;;7.09;69.95
13593;BME280;6867;50.998;4.250;2023-02-25T10:51:09;100884.06;;;7.43;70.21
13593;BME280;6867;50.998;4.250;2023-02-25T10:53:37;100896.13;;;7.84;70.62
13593;BME280;6867;50.998;4.250;2023-02-25T10:56:04;100898.34;;;7.80;70.26
13593;BME280;6867;50.998;4.250;2023-02-25T10:58:35;100885.56;;;8.12;69.76
13593;BME280;6867;50.998;4.250;2023-02-25T11:01:08;100868.28;;;7.78;68.95
13593;BME280;6867;50.998;4.250;2023-02-25T11:03:44;100857.78;;;8.13;69.35
13593;BME280;6867;50.998;4.250;2023-02-25T11:06:18;100853.03;;;8.51;68.89
13593;BME280;6867;50.998;4.250;2023-02-25T11:08:45;100828.44;;;8.19;68.56
13593;BME280;6867;50.998;4.250;2023-02-25T11:11:17;100822.09;;;8.27;67.51
13593;BME280;6867;50.998;4.250;2023-02-25T11:14:02;100774.13;;;8.47;66.03
13593;BME280;6867;50.998;4.250;2023-02-25T11:16:31;100776.44;;;8.50;65.52
13593;BME280;6867;50.998;4.250;2023-02-25T11:19:01;100777.19;;;9.00;65.49
13593;BME280;6867;50.998;4.250;2023-02-25T11:21:34;100707.25;;;9.36;63.25
13593;BME280;6867;50.998;4.250;2023-02-25T11:24:03;100686.91;;;9.62;62.08
13593;BME280;6867;50.998;4.250;2023-02-25T11:26:33;100680.13;;;9.79;61.51
13593;BME280;6867;50.998;4.250;2023-02-25T11:29:06;100633.69;;;10.12;60.16
13593;BME280;6867;50.998;4.250;2023-02-25T11:31:37;100522.59;;;10.26;57.33
13593;BME280;6867;50.998;4.250;2023-02-25T11:34:11;100555.44;;;10.80;57.56
13593;BME280;6867;50.998;4.250;2023-02-25T11:36:40;100478.94;;;10.51;56.07
13593;BME280;6867;50.998;4.250;2023-02-25T11:39:15;100539.16;;;10.75;56.54
13593;BME280;6867;50.998;4.250;2023-02-25T11:41:43;100500.75;;;10.61;55.89
13593;BME280;6867;50.998;4.250;2023-02-25T11:44:19;100440.78;;;10.35;55.04
13593;BME280;6867;50.998;4.250;2023-02-25T11:46:52;100453.41;;;9.50;55.70
13593;BME280;6867;50.998;4.250;2023-02-25T11:49:25;100500.22;;;9.47;56.77
13593;BME280;6867;50.998;4.250;2023-02-25T11:52:03;100566.16;;;9.15;57.95
13593;BME280;6867;50.998;4.250;2023-02-25T11:54:40;100577.25;;;8.92;58.14
13593;BME280;6867;50.998;4.250;2023-02-25T11:57:16;100583.84;;;8.96;58.65
13593;BME280;6867;50.998;4.250;2023-02-25T11:59:58;100557.06;;;8.96;58.34
13593;BME280;6867;50.998;4.250;2023-02-25T12:02:40;100527.81;;;9.02;57.27
13593;BME280;6867;50.998;4.250;2023-02-25T12:08:17;100577.97;;;9.61;56.48
13593;BME280;6867;50.998;4.250;2023-02-25T12:17:19;100583.72;;;9.31;57.11
13593;BME280;6867;50.998;4.250;2023-02-25T12:26:20;100421.25;;;9.30;54.04
13593;BME280;6867;50.998;4.250;2023-02-25T12:29:01;100429.69;;;9.54;53.96
13593;BME280;6867;50.998;4.250;2023-02-25T12:31:51;100433.06;;;9.94;52.95
13593;BME280;6867;50.998;4.250;2023-02-25T12:34:43;100278.66;;;9.66;50.04
13593;BME280;6867;50.998;4.250;2023-02-25T12:37:33;100270.94;;;9.77;49.95
13593;BME280;6867;50.998;4.250;2023-02-25T12:40:23;100237.06;;;9.82;49.38
13593;BME280;6867;50.998;4.250;2023-02-25T12:43:04;100244.88;;;9.90;48.92
13593;BME280;6867;50.998;4.250;2023-02-25T12:45:44;100232.31;;;9.84;48.12
13593;BME280;6867;50.998;4.250;2023-02-25T12:48:47;100274.34;;;9.97;49.19
13593;BME280;6867;50.998;4.250;2023-02-25T12:51:36;100298.31;;;10.23;49.32
13593;BME280;6867;50.998;4.250;2023-02-25T12:54:23;100348.97;;;10.83;49.74
13593;BME280;6867;50.998;4.250;2023-02-25T12:57:20;100267.88;;;10.86;48.23
13593;BME280;6867;50.998;4.250;2023-02-25T13:00:21;100278.50;;;11.73;47.25
13593;BME280;6867;50.998;4.250;2023-02-25T13:03:02;100283.09;;;12.03;46.06
13593;BME280;6867;50.998;4.250;2023-02-25T13:06:00;100215.28;;;11.15;46.51
13593;BME280;6867;50.998;4.250;2023-02-25T13:08:59;100306.56;;;10.85;48.70
13593;BME280;6867;50.998;4.250;2023-02-25T13:11:41;100124.31;;;10.45;45.78
13593;BME280;6867;50.998;4.250;2023-02-25T13:14:27;100021.75;;;10.37;42.46
13593;BME280;6867;50.998;4.250;2023-02-25T13:17:15;100013.75;;;10.67;42.49
13593;BME280;6867;50.998;4.250;2023-02-25T13:20:17;100069.44;;;11.20;42.15
13593;BME280;6867;50.998;4.250;2023-02-25T13:22:57;100081.69;;;11.58;41.79
13593;BME280;6867;50.998;4.250;2023-02-25T13:25:43;100109.09;;;11.78;41.86
13593;BME280;6867;50.998;4.250;2023-02-25T13:28:24;100038.44;;;11.06;41.31
13593;BME280;6867;50.998;4.250;2023-02-25T13:30:58;100091.97;;;11.37;41.94
13593;BME280;6867;50.998;4.250;2023-02-25T13:33:49;100028.44;;;10.94;41.07
13593;BME280;6867;50.998;4.250;2023-02-25T13:36:47;100055.03;;;10.84;41.68
13593;BME280;6867;50.998;4.250;2023-02-25T13:39:37;100127.28;;;10.74;43.17
13593;BME280;6867;50.998;4.250;2023-02-25T13:42:21;100152.72;;;11.08;42.58
13593;BME280;6867;50.998;4.250;2023-02-25T13:48:28;100153.84;;;11.01;42.87
13593;BME280;6867;50.998;4.250;2023-02-25T13:51:31;100144.81;;;11.13;42.39
13593;BME280;6867;50.998;4.250;2023-02-25T13:54:15;100201.09;;;11.27;43.28